sensor_id;sensor_type;location;lat;lon;timestamp;temperature;humidity
1996;DHT22;38556;47.068;15.408;2023-11-21T00:00:35;10.10;89.90
1996;DHT22;38556;47.068;15.408;2023-11-21T00:03:03;9.80;90.90
1996;DHT22;38556;47.068;15.408;2023-11-21T00:05:32;10.10;90.20
1996;DHT22;38556;47.068;15.408;2023-11-21T00:07:59;10.40;89.80
1996;DHT22;38556;47.068;15.408;2023-11-21T00:10:26;10.60;89.30
1996;DHT22;38556;47.068;15.408;2023-11-21T00:12:54;10.80;88.70
1996;DHT22;38556;47.068;15.408;2023-11-21T00:15:22;10.80;88.80
1996;DHT22;38556;47.068;15.408;2023-11-21T00:17:49;11.00;88.20
1996;DHT22;38556;47.068;15.408;2023-11-21T00:20:17;11.00;87.90
1996;DHT22;38556;47.068;15.408;2023-11-21T00:22:45;11.00;87.90
1996;DHT22;38556;47.068;15.408;2023-11-21T00:25:14;11.10;87.70
1996;DHT22;38556;47.068;15.408;2023-11-21T00:27:43;11.10;87.50
1996;DHT22;38556;47.068;15.408;2023-11-21T00:30:11;11.20;87.50
1996;DHT22;38556;47.068;15.408;2023-11-21T00:32:39;11.20;87.30
1996;DHT22;38556;47.068;15.408;2023-11-21T00:35:06;11.20;87.20
1996;DHT22;38556;47.068;15.408;2023-11-21T00:37:33;11.20;87.30
1996;DHT22;38556;47.068;15.408;2023-11-21T00:40:03;11.20;87.30
1996;DHT22;38556;47.068;15.408;2023-11-21T00:44:59;11.20;87.60
1996;DHT22;38556;47.068;15.408;2023-11-21T00:47:27;11.20;87.50
1996;DHT22;38556;47.068;15.408;2023-11-21T00:49:54;11.30;87.60
1996;DHT22;38556;47.068;15.408;2023-11-21T00:52:23;11.30;87.30
1996;DHT22;38556;47.068;15.408;2023-11-21T00:59:46;11.20;87.40
1996;DHT22;38556;47.068;15.408;2023-11-21T01:02:14;11.20;87.50
1996;DHT22;38556;47.068;15.408;2023-11-21T01:04:41;11.20;87.50
1996;DHT22;38556;47.068;15.408;2023-11-21T01:07:10;11.20;87.50
1996;DHT22;38556;47.068;15.408;2023-11-21T01:12:05;11.30;87.10
1996;DHT22;38556;47.068;15.408;2023-11-21T01:14:33;11.50;87.50
1996;DHT22;38556;47.068;15.408;2023-11-21T01:17:02;11.20;87.20
1996;DHT22;38556;47.068;15.408;2023-11-21T01:21:57;11.20;87.60
1996;DHT22;38556;47.068;15.408;2023-11-21T01:26:53;11.00;88.10
1996;DHT22;38556;47.068;15.408;2023-11-21T01:29:20;11.00;88.20
1996;DHT22;38556;47.068;15.408;2023-11-21T01:31:49;11.10;88.20
1996;DHT22;38556;47.068;15.408;2023-11-21T01:36:45;10.80;88.50
1996;DHT22;38556;47.068;15.408;2023-11-21T01:41:42;10.80;88.50
1996;DHT22;38556;47.068;15.408;2023-11-21T01:46:40;10.90;88.50
1996;DHT22;38556;47.068;15.408;2023-11-21T01:49:09;11.00;88.30
1996;DHT22;38556;47.068;15.408;2023-11-21T01:51:40;11.00;88.20
1996;DHT22;38556;47.068;15.408;2023-11-21T01:56:37;11.00;88.40
1996;DHT22;38556;47.068;15.408;2023-11-21T01:59:05;10.90;88.90
1996;DHT22;38556;47.068;15.408;2023-11-21T02:06:30;10.90;88.70
1996;DHT22;38556;47.068;15.408;2023-11-21T02:08:57;10.90;88.70
1996;DHT22;38556;47.068;15.408;2023-11-21T02:13:54;10.80;89.00
1996;DHT22;38556;47.068;15.408;2023-11-21T02:16:21;10.80;89.20
1996;DHT22;38556;47.068;15.408;2023-11-21T02:21:17;10.00;89.60
1996;DHT22;38556;47.068;15.408;2023-11-21T02:23:46;9.70;91.60
1996;DHT22;38556;47.068;15.408;2023-11-21T02:26:14;9.40;91.60
1996;DHT22;38556;47.068;15.408;2023-11-21T02:31:10;8.40;93.30
1996;DHT22;38556;47.068;15.408;2023-11-21T02:36:06;8.60;93.60
1996;DHT22;38556;47.068;15.408;2023-11-21T02:38:34;8.80;93.60
1996;DHT22;38556;47.068;15.408;2023-11-21T02:41:02;9.00;93.40
1996;DHT22;38556;47.068;15.408;2023-11-21T02:43:30;8.90;93.20
1996;DHT22;38556;47.068;15.408;2023-11-21T02:45:57;8.60;93.50
1996;DHT22;38556;47.068;15.408;2023-11-21T02:48:24;8.60;94.00
1996;DHT22;38556;47.068;15.408;2023-11-21T02:50:52;8.40;94.10
1996;DHT22;38556;47.068;15.408;2023-11-21T02:53:19;8.50;94.30
1996;DHT22;38556;47.068;15.408;2023-11-21T02:55:46;8.60;93.80
1996;DHT22;38556;47.068;15.408;2023-11-21T03:00:42;8.50;94.30
1996;DHT22;38556;47.068;15.408;2023-11-21T03:03:10;8.10;95.00
1996;DHT22;38556;47.068;15.408;2023-11-21T03:08:05;8.20;95.30
1996;DHT22;38556;47.068;15.408;2023-11-21T03:15:29;9.30;93.70
1996;DHT22;38556;47.068;15.408;2023-11-21T03:17:58;9.00;93.40
1996;DHT22;38556;47.068;15.408;2023-11-21T03:20:26;8.70;94.10
1996;DHT22;38556;47.068;15.408;2023-11-21T03:22:53;9.00;94.20
1996;DHT22;38556;47.068;15.408;2023-11-21T03:27:49;9.10;93.80
1996;DHT22;38556;47.068;15.408;2023-11-21T03:35:14;9.50;93.30
1996;DHT22;38556;47.068;15.408;2023-11-21T03:40:10;9.10;94.20
1996;DHT22;38556;47.068;15.408;2023-11-21T03:45:06;8.80;95.00
1996;DHT22;38556;47.068;15.408;2023-11-21T03:50:04;9.80;93.90
1996;DHT22;38556;47.068;15.408;2023-11-21T03:52:31;10.20;92.70
1996;DHT22;38556;47.068;15.408;2023-11-21T03:54:59;10.50;92.30
1996;DHT22;38556;47.068;15.408;2023-11-21T04:02:22;10.90;91.90
1996;DHT22;38556;47.068;15.408;2023-11-21T04:04:50;11.00;91.80
1996;DHT22;38556;47.068;15.408;2023-11-21T04:07:19;11.00;91.70
1996;DHT22;38556;47.068;15.408;2023-11-21T04:09:47;11.10;91.50
1996;DHT22;38556;47.068;15.408;2023-11-21T04:12:15;11.20;91.40
1996;DHT22;38556;47.068;15.408;2023-11-21T04:14:42;11.20;91.30
1996;DHT22;38556;47.068;15.408;2023-11-21T04:17:10;11.30;91.30
1996;DHT22;38556;47.068;15.408;2023-11-21T04:19:37;11.20;91.40
1996;DHT22;38556;47.068;15.408;2023-11-21T04:22:04;11.30;91.40
1996;DHT22;38556;47.068;15.408;2023-11-21T04:24:33;11.30;91.40
1996;DHT22;38556;47.068;15.408;2023-11-21T04:27:00;11.40;91.30
1996;DHT22;38556;47.068;15.408;2023-11-21T04:29:29;11.40;91.40
1996;DHT22;38556;47.068;15.408;2023-11-21T04:31:56;11.40;91.40
1996;DHT22;38556;47.068;15.408;2023-11-21T04:36:51;11.50;91.50
1996;DHT22;38556;47.068;15.408;2023-11-21T04:39:18;11.50;91.50
1996;DHT22;38556;47.068;15.408;2023-11-21T04:41:47;11.50;91.40
1996;DHT22;38556;47.068;15.408;2023-11-21T04:44:14;11.50;91.70
1996;DHT22;38556;47.068;15.408;2023-11-21T04:46:42;11.30;92.10
1996;DHT22;38556;47.068;15.408;2023-11-21T04:49:09;10.80;92.30
1996;DHT22;38556;47.068;15.408;2023-11-21T04:51:37;10.60;92.70
1996;DHT22;38556;47.068;15.408;2023-11-21T04:54:04;10.70;92.60
1996;DHT22;38556;47.068;15.408;2023-11-21T04:56:33;10.90;92.50
1996;DHT22;38556;47.068;15.408;2023-11-21T04:59:01;11.00;92.40
1996;DHT22;38556;47.068;15.408;2023-11-21T05:01:28;11.00;92.40
1996;DHT22;38556;47.068;15.408;2023-11-21T05:06:23;11.20;92.40
1996;DHT22;38556;47.068;15.408;2023-11-21T05:08:51;11.30;92.20
1996;DHT22;38556;47.068;15.408;2023-11-21T05:11:25;11.40;92.10
1996;DHT22;38556;47.068;15.408;2023-11-21T05:13:52;11.40;92.10
1996;DHT22;38556;47.068;15.408;2023-11-21T05:16:25;11.40;92.20
1996;DHT22;38556;47.068;15.408;2023-11-21T05:18:55;11.40;92.20
1996;DHT22;38556;47.068;15.408;2023-11-21T05:23:54;11.40;92.10
1996;DHT22;38556;47.068;15.408;2023-11-21T05:26:21;11.50;92.20
1996;DHT22;38556;47.068;15.408;2023-11-21T05:28:49;11.50;92.00
1996;DHT22;38556;47.068;15.408;2023-11-21T05:31:16;11.40;92.00
1996;DHT22;38556;47.068;15.408;2023-11-21T05:33:44;11.40;92.10
1996;DHT22;38556;47.068;15.408;2023-11-21T05:41:07;11.50;92.20
1996;DHT22;38556;47.068;15.408;2023-11-21T05:43:37;11.50;92.30
1996;DHT22;38556;47.068;15.408;2023-11-21T05:46:04;11.40;92.50
1996;DHT22;38556;47.068;15.408;2023-11-21T05:51:05;11.50;92.50
1996;DHT22;38556;47.068;15.408;2023-11-21T05:53:32;11.40;92.60
1996;DHT22;38556;47.068;15.408;2023-11-21T05:56:00;11.40;92.60
1996;DHT22;38556;47.068;15.408;2023-11-21T05:58:27;11.40;92.60
1996;DHT22;38556;47.068;15.408;2023-11-21T06:00:54;11.20;92.80
1996;DHT22;38556;47.068;15.408;2023-11-21T06:03:22;11.00;93.20
1996;DHT22;38556;47.068;15.408;2023-11-21T06:05:49;11.10;93.30
1996;DHT22;38556;47.068;15.408;2023-11-21T06:08:18;11.10;93.20
1996;DHT22;38556;47.068;15.408;2023-11-21T06:10:46;11.20;93.20
1996;DHT22;38556;47.068;15.408;2023-11-21T06:13:15;11.20;93.10
1996;DHT22;38556;47.068;15.408;2023-11-21T06:15:42;11.00;93.40
1996;DHT22;38556;47.068;15.408;2023-11-21T06:20:37;11.10;99.90
1996;DHT22;38556;47.068;15.408;2023-11-21T06:25:34;11.50;96.40
1996;DHT22;38556;47.068;15.408;2023-11-21T06:28:02;11.60;95.40
1996;DHT22;38556;47.068;15.408;2023-11-21T06:30:30;11.70;94.80
1996;DHT22;38556;47.068;15.408;2023-11-21T06:32:57;11.70;94.30
1996;DHT22;38556;47.068;15.408;2023-11-21T06:35:25;11.70;94.10
1996;DHT22;38556;47.068;15.408;2023-11-21T06:37:54;11.70;93.80
1996;DHT22;38556;47.068;15.408;2023-11-21T06:40:21;11.70;93.60
1996;DHT22;38556;47.068;15.408;2023-11-21T06:47:46;11.60;93.30
1996;DHT22;38556;47.068;15.408;2023-11-21T06:50:13;11.70;93.20
1996;DHT22;38556;47.068;15.408;2023-11-21T06:55:09;11.60;93.30
1996;DHT22;38556;47.068;15.408;2023-11-21T06:57:37;11.70;93.30
1996;DHT22;38556;47.068;15.408;2023-11-21T07:00:08;11.70;93.30
1996;DHT22;38556;47.068;15.408;2023-11-21T07:05:04;11.10;94.00
1996;DHT22;38556;47.068;15.408;2023-11-21T07:10:01;11.10;94.40
1996;DHT22;38556;47.068;15.408;2023-11-21T07:12:30;11.20;94.10
1996;DHT22;38556;47.068;15.408;2023-11-21T07:17:26;11.40;93.90
1996;DHT22;38556;47.068;15.408;2023-11-21T07:19:53;11.40;93.80
1996;DHT22;38556;47.068;15.408;2023-11-21T07:22:21;11.30;94.10
1996;DHT22;38556;47.068;15.408;2023-11-21T07:24:49;11.40;94.20
1996;DHT22;38556;47.068;15.408;2023-11-21T07:27:17;11.40;94.10
1996;DHT22;38556;47.068;15.408;2023-11-21T07:32:12;10.70;95.30
1996;DHT22;38556;47.068;15.408;2023-11-21T07:34:42;10.80;95.60
1996;DHT22;38556;47.068;15.408;2023-11-21T07:37:09;10.80;95.40
1996;DHT22;38556;47.068;15.408;2023-11-21T07:39:37;10.80;95.60
1996;DHT22;38556;47.068;15.408;2023-11-21T07:42:08;10.80;95.80
1996;DHT22;38556;47.068;15.408;2023-11-21T07:49:32;9.50;99.10
1996;DHT22;38556;47.068;15.408;2023-11-21T07:52:01;9.70;99.40
1996;DHT22;38556;47.068;15.408;2023-11-21T07:54:28;10.00;98.60
1996;DHT22;38556;47.068;15.408;2023-11-21T07:56:56;10.10;98.10
1996;DHT22;38556;47.068;15.408;2023-11-21T07:59:23;10.30;98.30
1996;DHT22;38556;47.068;15.408;2023-11-21T08:01:51;10.40;98.00
1996;DHT22;38556;47.068;15.408;2023-11-21T08:04:18;10.20;98.10
1996;DHT22;38556;47.068;15.408;2023-11-21T08:06:46;10.40;98.10
1996;DHT22;38556;47.068;15.408;2023-11-21T08:09:14;9.70;99.80
1996;DHT22;38556;47.068;15.408;2023-11-21T08:11:43;9.70;99.90
1996;DHT22;38556;47.068;15.408;2023-11-21T08:14:12;9.90;99.90
1996;DHT22;38556;47.068;15.408;2023-11-21T08:24:04;9.50;99.90
1996;DHT22;38556;47.068;15.408;2023-11-21T08:26:33;9.70;99.90
1996;DHT22;38556;47.068;15.408;2023-11-21T08:31:28;10.30;99.90
1996;DHT22;38556;47.068;15.408;2023-11-21T08:33:56;9.90;99.90
1996;DHT22;38556;47.068;15.408;2023-11-21T08:38:52;9.60;99.90
1996;DHT22;38556;47.068;15.408;2023-11-21T08:41:19;9.80;99.90
1996;DHT22;38556;47.068;15.408;2023-11-21T08:43:50;9.90;99.90
1996;DHT22;38556;47.068;15.408;2023-11-21T08:46:17;10.10;99.90
1996;DHT22;38556;47.068;15.408;2023-11-21T08:56:12;9.40;99.90
1996;DHT22;38556;47.068;15.408;2023-11-21T09:01:09;10.30;99.90
1996;DHT22;38556;47.068;15.408;2023-11-21T09:03:37;10.30;99.90
1996;DHT22;38556;47.068;15.408;2023-11-21T09:06:06;10.60;99.90
1996;DHT22;38556;47.068;15.408;2023-11-21T09:13:32;11.60;99.90
1996;DHT22;38556;47.068;15.408;2023-11-21T09:15:59;11.50;99.70
1996;DHT22;38556;47.068;15.408;2023-11-21T09:18:28;11.00;99.90
1996;DHT22;38556;47.068;15.408;2023-11-21T09:23:23;10.70;99.90
1996;DHT22;38556;47.068;15.408;2023-11-21T09:25:50;10.40;99.90
1996;DHT22;38556;47.068;15.408;2023-11-21T09:28:20;10.00;99.90
1996;DHT22;38556;47.068;15.408;2023-11-21T09:30:47;9.80;99.90
1996;DHT22;38556;47.068;15.408;2023-11-21T09:33:17;10.10;99.90
1996;DHT22;38556;47.068;15.408;2023-11-21T09:35:45;10.40;99.90
1996;DHT22;38556;47.068;15.408;2023-11-21T09:38:14;10.70;99.90
1996;DHT22;38556;47.068;15.408;2023-11-21T09:43:14;11.30;99.90
1996;DHT22;38556;47.068;15.408;2023-11-21T09:45:46;11.50;99.90
1996;DHT22;38556;47.068;15.408;2023-11-21T09:48:14;11.80;99.90
1996;DHT22;38556;47.068;15.408;2023-11-21T09:53:17;12.20;99.10
1996;DHT22;38556;47.068;15.408;2023-11-21T09:55:48;12.30;98.70
1996;DHT22;38556;47.068;15.408;2023-11-21T10:00:50;12.20;98.70
1996;DHT22;38556;47.068;15.408;2023-11-21T10:03:20;11.50;99.50
1996;DHT22;38556;47.068;15.408;2023-11-21T10:05:48;11.10;99.90
1996;DHT22;38556;47.068;15.408;2023-11-21T10:08:22;11.00;99.90
1996;DHT22;38556;47.068;15.408;2023-11-21T10:10:53;10.90;99.90
1996;DHT22;38556;47.068;15.408;2023-11-21T10:15:50;11.00;99.90
1996;DHT22;38556;47.068;15.408;2023-11-21T10:18:18;11.10;99.90
1996;DHT22;38556;47.068;15.408;2023-11-21T10:20:45;11.00;99.90
1996;DHT22;38556;47.068;15.408;2023-11-21T10:23:19;11.00;99.90
1996;DHT22;38556;47.068;15.408;2023-11-21T10:25:48;10.60;99.90
1996;DHT22;38556;47.068;15.408;2023-11-21T10:28:16;10.60;99.90
1996;DHT22;38556;47.068;15.408;2023-11-21T10:35:45;11.20;99.90
1996;DHT22;38556;47.068;15.408;2023-11-21T10:38:18;11.20;99.90
1996;DHT22;38556;47.068;15.408;2023-11-21T10:40:48;11.20;99.90
1996;DHT22;38556;47.068;15.408;2023-11-21T10:43:16;11.30;99.90
1996;DHT22;38556;47.068;15.408;2023-11-21T10:48:13;11.50;99.90
1996;DHT22;38556;47.068;15.408;2023-11-21T10:53:11;10.90;99.90
1996;DHT22;38556;47.068;15.408;2023-11-21T10:55:40;10.80;99.90
1996;DHT22;38556;47.068;15.408;2023-11-21T11:00:37;11.10;99.90
1996;DHT22;38556;47.068;15.408;2023-11-21T11:03:07;11.40;99.90
1996;DHT22;38556;47.068;15.408;2023-11-21T11:05:41;11.80;99.90
1996;DHT22;38556;47.068;15.408;2023-11-21T11:08:12;11.70;99.90
1996;DHT22;38556;47.068;15.408;2023-11-21T11:10:46;11.70;99.90
1996;DHT22;38556;47.068;15.408;2023-11-21T11:15:42;11.70;99.90
1996;DHT22;38556;47.068;15.408;2023-11-21T11:18:10;12.20;99.90
1996;DHT22;38556;47.068;15.408;2023-11-21T11:20:40;12.00;99.90
1996;DHT22;38556;47.068;15.408;2023-11-21T11:23:24;12.40;99.90
1996;DHT22;38556;47.068;15.408;2023-11-21T11:26:08;12.70;99.20
1996;DHT22;38556;47.068;15.408;2023-11-21T11:28:47;12.30;99.00
1996;DHT22;38556;47.068;15.408;2023-11-21T11:31:31;11.90;99.30
1996;DHT22;38556;47.068;15.408;2023-11-21T11:34:14;12.10;99.40
1996;DHT22;38556;47.068;15.408;2023-11-21T11:36:55;12.10;99.00
1996;DHT22;38556;47.068;15.408;2023-11-21T11:39:30;11.90;99.40
1996;DHT22;38556;47.068;15.408;2023-11-21T11:42:02;11.70;99.60
1996;DHT22;38556;47.068;15.408;2023-11-21T11:44:47;11.80;99.90
1996;DHT22;38556;47.068;15.408;2023-11-21T11:47:19;12.10;99.80
1996;DHT22;38556;47.068;15.408;2023-11-21T11:50:11;12.00;99.50
1996;DHT22;38556;47.068;15.408;2023-11-21T11:55:11;11.80;99.50
1996;DHT22;38556;47.068;15.408;2023-11-21T11:57:41;11.60;99.70
1996;DHT22;38556;47.068;15.408;2023-11-21T12:02:42;12.10;99.70
1996;DHT22;38556;47.068;15.408;2023-11-21T12:05:12;12.40;99.00
1996;DHT22;38556;47.068;15.408;2023-11-21T12:12:48;12.10;98.80
1996;DHT22;38556;47.068;15.408;2023-11-21T12:15:17;12.30;98.90
1996;DHT22;38556;47.068;15.408;2023-11-21T12:17:45;12.40;98.80
1996;DHT22;38556;47.068;15.408;2023-11-21T12:20:14;12.10;98.80
1996;DHT22;38556;47.068;15.408;2023-11-21T12:25:14;12.60;98.10
1996;DHT22;38556;47.068;15.408;2023-11-21T12:27:45;12.20;97.90
1996;DHT22;38556;47.068;15.408;2023-11-21T12:30:15;12.10;98.70
1996;DHT22;38556;47.068;15.408;2023-11-21T12:35:12;12.60;98.40
1996;DHT22;38556;47.068;15.408;2023-11-21T12:37:41;12.30;98.00
1996;DHT22;38556;47.068;15.408;2023-11-21T12:42:41;12.20;98.40
1996;DHT22;38556;47.068;15.408;2023-11-21T12:45:20;12.20;98.40
1996;DHT22;38556;47.068;15.408;2023-11-21T12:47:49;12.50;98.00
1996;DHT22;38556;47.068;15.408;2023-11-21T12:50:19;12.60;97.70
1996;DHT22;38556;47.068;15.408;2023-11-21T12:52:50;12.80;97.60
1996;DHT22;38556;47.068;15.408;2023-11-21T12:55:20;12.90;97.20
1996;DHT22;38556;47.068;15.408;2023-11-21T12:57:49;12.80;97.40
1996;DHT22;38556;47.068;15.408;2023-11-21T13:00:19;13.00;97.00
1996;DHT22;38556;47.068;15.408;2023-11-21T13:02:54;13.20;96.70
1996;DHT22;38556;47.068;15.408;2023-11-21T13:05:24;13.20;96.50
1996;DHT22;38556;47.068;15.408;2023-11-21T13:07:52;13.10;96.50
1996;DHT22;38556;47.068;15.408;2023-11-21T13:10:23;13.00;96.60
1996;DHT22;38556;47.068;15.408;2023-11-21T13:15:22;13.10;96.10
1996;DHT22;38556;47.068;15.408;2023-11-21T13:20:19;12.40;96.80
1996;DHT22;38556;47.068;15.408;2023-11-21T13:22:49;12.60;97.50
1996;DHT22;38556;47.068;15.408;2023-11-21T13:25:18;12.80;96.90
1996;DHT22;38556;47.068;15.408;2023-11-21T13:27:45;12.70;97.00
1996;DHT22;38556;47.068;15.408;2023-11-21T13:32:50;12.80;97.30
1996;DHT22;38556;47.068;15.408;2023-11-21T13:35:18;13.00;96.90
1996;DHT22;38556;47.068;15.408;2023-11-21T13:37:57;13.20;96.60
1996;DHT22;38556;47.068;15.408;2023-11-21T13:42:54;13.00;96.40
1996;DHT22;38556;47.068;15.408;2023-11-21T13:45:25;12.50;96.60
1996;DHT22;38556;47.068;15.408;2023-11-21T13:47:55;12.40;97.30
1996;DHT22;38556;47.068;15.408;2023-11-21T13:55:29;12.80;96.80
1996;DHT22;38556;47.068;15.408;2023-11-21T13:57:56;12.70;96.70
1996;DHT22;38556;47.068;15.408;2023-11-21T14:00:25;12.60;96.90
1996;DHT22;38556;47.068;15.408;2023-11-21T14:03:13;12.30;97.10
1996;DHT22;38556;47.068;15.408;2023-11-21T14:05:47;12.40;97.30
1996;DHT22;38556;47.068;15.408;2023-11-21T14:08:18;12.30;97.20
1996;DHT22;38556;47.068;15.408;2023-11-21T14:13:21;12.60;96.90
1996;DHT22;38556;47.068;15.408;2023-11-21T14:15:49;12.70;97.00
1996;DHT22;38556;47.068;15.408;2023-11-21T14:18:24;12.90;96.70
1996;DHT22;38556;47.068;15.408;2023-11-21T14:23:24;13.20;96.20
1996;DHT22;38556;47.068;15.408;2023-11-21T14:28:19;13.30;95.90
1996;DHT22;38556;47.068;15.408;2023-11-21T14:35:44;13.20;95.90
1996;DHT22;38556;47.068;15.408;2023-11-21T14:38:13;13.10;96.00
1996;DHT22;38556;47.068;15.408;2023-11-21T14:40:40;13.20;95.90
1996;DHT22;38556;47.068;15.408;2023-11-21T14:43:08;13.20;95.90
1996;DHT22;38556;47.068;15.408;2023-11-21T14:50:43;12.70;96.50
1996;DHT22;38556;47.068;15.408;2023-11-21T14:56:19;12.70;96.40
1996;DHT22;38556;47.068;15.408;2023-11-21T14:58:53;12.50;96.60
1996;DHT22;38556;47.068;15.408;2023-11-21T15:01:22;12.10;97.10
1996;DHT22;38556;47.068;15.408;2023-11-21T15:06:30;11.80;98.00
1996;DHT22;38556;47.068;15.408;2023-11-21T15:08:57;11.90;97.80
1996;DHT22;38556;47.068;15.408;2023-11-21T15:11:41;12.00;97.80
1996;DHT22;38556;47.068;15.408;2023-11-21T15:14:09;11.90;97.90
1996;DHT22;38556;47.068;15.408;2023-11-21T15:16:38;12.00;97.80
1996;DHT22;38556;47.068;15.408;2023-11-21T15:19:08;12.20;97.70
1996;DHT22;38556;47.068;15.408;2023-11-21T15:21:39;12.40;97.20
1996;DHT22;38556;47.068;15.408;2023-11-21T15:24:07;12.50;96.80
1996;DHT22;38556;47.068;15.408;2023-11-21T15:29:04;12.50;96.80
1996;DHT22;38556;47.068;15.408;2023-11-21T15:31:32;12.50;96.80
1996;DHT22;38556;47.068;15.408;2023-11-21T15:36:27;12.50;96.90
1996;DHT22;38556;47.068;15.408;2023-11-21T15:38:55;12.50;96.80
1996;DHT22;38556;47.068;15.408;2023-11-21T15:41:24;12.60;96.70
1996;DHT22;38556;47.068;15.408;2023-11-21T15:48:47;12.50;97.00
1996;DHT22;38556;47.068;15.408;2023-11-21T15:53:47;12.30;97.00
1996;DHT22;38556;47.068;15.408;2023-11-21T15:56:16;12.30;97.00
1996;DHT22;38556;47.068;15.408;2023-11-21T15:58:43;12.30;96.80
1996;DHT22;38556;47.068;15.408;2023-11-21T16:11:09;11.90;97.80
1996;DHT22;38556;47.068;15.408;2023-11-21T16:13:38;12.10;97.40
1996;DHT22;38556;47.068;15.408;2023-11-21T16:16:07;12.20;97.00
1996;DHT22;38556;47.068;15.408;2023-11-21T16:23:30;12.20;96.90
1996;DHT22;38556;47.068;15.408;2023-11-21T16:25:58;11.80;97.60
1996;DHT22;38556;47.068;15.408;2023-11-21T16:28:25;11.80;97.60
1996;DHT22;38556;47.068;15.408;2023-11-21T16:30:54;11.90;97.40
1996;DHT22;38556;47.068;15.408;2023-11-21T16:38:17;12.20;96.60
1996;DHT22;38556;47.068;15.408;2023-11-21T16:40:44;12.30;96.40
1996;DHT22;38556;47.068;15.408;2023-11-21T16:43:12;12.30;96.40
1996;DHT22;38556;47.068;15.408;2023-11-21T16:45:39;12.10;96.50
1996;DHT22;38556;47.068;15.408;2023-11-21T16:48:08;11.20;97.20
1996;DHT22;38556;47.068;15.408;2023-11-21T16:50:36;10.10;99.30
1996;DHT22;38556;47.068;15.408;2023-11-21T17:00:28;9.30;99.90
1996;DHT22;38556;47.068;15.408;2023-11-21T17:05:24;9.80;99.90
1996;DHT22;38556;47.068;15.408;2023-11-21T17:10:20;10.10;99.90
1996;DHT22;38556;47.068;15.408;2023-11-21T17:12:48;10.30;99.90
1996;DHT22;38556;47.068;15.408;2023-11-21T17:17:44;10.20;99.90
1996;DHT22;38556;47.068;15.408;2023-11-21T17:20:12;10.30;99.90
1996;DHT22;38556;47.068;15.408;2023-11-21T17:22:43;10.50;99.90
1996;DHT22;38556;47.068;15.408;2023-11-21T17:27:39;10.70;99.90
1996;DHT22;38556;47.068;15.408;2023-11-21T17:32:34;11.30;99.90
1996;DHT22;38556;47.068;15.408;2023-11-21T17:39:59;11.80;99.10
1996;DHT22;38556;47.068;15.408;2023-11-21T17:42:27;11.80;98.90
1996;DHT22;38556;47.068;15.408;2023-11-21T17:44:55;11.90;98.60
1996;DHT22;38556;47.068;15.408;2023-11-21T17:49:51;12.00;98.40
1996;DHT22;38556;47.068;15.408;2023-11-21T17:52:19;12.00;98.20
1996;DHT22;38556;47.068;15.408;2023-11-21T17:54:47;12.10;98.10
1996;DHT22;38556;47.068;15.408;2023-11-21T17:57:16;12.10;97.90
1996;DHT22;38556;47.068;15.408;2023-11-21T18:02:13;12.10;97.80
1996;DHT22;38556;47.068;15.408;2023-11-21T18:04:40;12.00;97.80
1996;DHT22;38556;47.068;15.408;2023-11-21T18:07:07;12.10;97.70
1996;DHT22;38556;47.068;15.408;2023-11-21T18:12:06;12.20;97.20
1996;DHT22;38556;47.068;15.408;2023-11-21T18:14:35;12.20;97.20
1996;DHT22;38556;47.068;15.408;2023-11-21T18:17:04;12.10;97.10
1996;DHT22;38556;47.068;15.408;2023-11-21T18:19:31;12.10;97.10
1996;DHT22;38556;47.068;15.408;2023-11-21T18:21:59;12.00;97.10
1996;DHT22;38556;47.068;15.408;2023-11-21T18:29:22;12.00;97.00
1996;DHT22;38556;47.068;15.408;2023-11-21T18:31:50;12.10;96.80
1996;DHT22;38556;47.068;15.408;2023-11-21T18:39:13;11.80;99.70
1996;DHT22;38556;47.068;15.408;2023-11-21T18:46:39;11.60;98.80
1996;DHT22;38556;47.068;15.408;2023-11-21T18:51:36;11.80;98.10
1996;DHT22;38556;47.068;15.408;2023-11-21T18:54:04;11.80;97.80
1996;DHT22;38556;47.068;15.408;2023-11-21T18:56:32;11.60;98.00
1996;DHT22;38556;47.068;15.408;2023-11-21T18:58:59;11.60;98.00
1996;DHT22;38556;47.068;15.408;2023-11-21T19:01:28;11.70;97.80
1996;DHT22;38556;47.068;15.408;2023-11-21T19:03:56;11.80;97.60
1996;DHT22;38556;47.068;15.408;2023-11-21T19:06:26;11.80;97.40
1996;DHT22;38556;47.068;15.408;2023-11-21T19:11:22;11.80;98.80
1996;DHT22;38556;47.068;15.408;2023-11-21T19:13:50;11.90;98.20
1996;DHT22;38556;47.068;15.408;2023-11-21T19:16:19;12.00;97.90
1996;DHT22;38556;47.068;15.408;2023-11-21T19:18:47;12.00;97.60
1996;DHT22;38556;47.068;15.408;2023-11-21T19:23:46;12.00;97.20
1996;DHT22;38556;47.068;15.408;2023-11-21T19:26:15;11.70;97.40
1996;DHT22;38556;47.068;15.408;2023-11-21T19:28:42;11.70;97.20
1996;DHT22;38556;47.068;15.408;2023-11-21T19:31:15;11.30;97.00
1996;DHT22;38556;47.068;15.408;2023-11-21T19:33:42;10.80;98.00
1996;DHT22;38556;47.068;15.408;2023-11-21T19:36:10;9.90;99.90
1996;DHT22;38556;47.068;15.408;2023-11-21T19:38:38;12.10;99.90
1996;DHT22;38556;47.068;15.408;2023-11-21T19:43:41;10.60;99.30
1996;DHT22;38556;47.068;15.408;2023-11-21T19:48:37;9.80;99.90
1996;DHT22;38556;47.068;15.408;2023-11-21T19:58:34;9.00;99.90
1996;DHT22;38556;47.068;15.408;2023-11-21T20:25:45;9.50;99.90
1996;DHT22;38556;47.068;15.408;2023-11-21T20:28:13;9.40;99.90
1996;DHT22;38556;47.068;15.408;2023-11-21T20:30:41;9.40;99.90
1996;DHT22;38556;47.068;15.408;2023-11-21T20:33:10;9.40;99.90
1996;DHT22;38556;47.068;15.408;2023-11-21T20:35:37;9.00;99.90
1996;DHT22;38556;47.068;15.408;2023-11-21T20:40:38;9.40;99.90
1996;DHT22;38556;47.068;15.408;2023-11-21T20:43:06;9.70;99.90
1996;DHT22;38556;47.068;15.408;2023-11-21T20:45:34;10.10;99.90
1996;DHT22;38556;47.068;15.408;2023-11-21T20:48:05;9.90;99.90
1996;DHT22;38556;47.068;15.408;2023-11-21T20:50:35;9.60;99.90
1996;DHT22;38556;47.068;15.408;2023-11-21T20:55:34;9.20;99.90
1996;DHT22;38556;47.068;15.408;2023-11-21T21:07:53;8.70;99.90
1996;DHT22;38556;47.068;15.408;2023-11-21T21:10:21;9.00;99.90
1996;DHT22;38556;47.068;15.408;2023-11-21T21:15:17;9.70;99.90
1996;DHT22;38556;47.068;15.408;2023-11-21T21:17:44;9.90;99.90
1996;DHT22;38556;47.068;15.408;2023-11-21T21:20:14;10.00;99.90
1996;DHT22;38556;47.068;15.408;2023-11-21T21:25:11;10.00;99.90
1996;DHT22;38556;47.068;15.408;2023-11-21T21:27:39;9.80;99.90
1996;DHT22;38556;47.068;15.408;2023-11-21T21:30:07;9.50;99.90
1996;DHT22;38556;47.068;15.408;2023-11-21T21:32:36;9.40;99.90
1996;DHT22;38556;47.068;15.408;2023-11-21T21:35:04;9.60;99.90
1996;DHT22;38556;47.068;15.408;2023-11-21T21:37:31;9.80;99.90
1996;DHT22;38556;47.068;15.408;2023-11-21T21:42:29;9.70;99.90
1996;DHT22;38556;47.068;15.408;2023-11-21T21:47:25;10.10;99.90
1996;DHT22;38556;47.068;15.408;2023-11-21T21:54:47;10.20;99.90
1996;DHT22;38556;47.068;15.408;2023-11-21T21:57:14;10.10;99.90